createdAt,value
2022-08-28T00:00:57.456Z,100947.75
2022-08-28T00:03:26.810Z,100955.13
2022-08-28T00:05:55.955Z,100949.31
2022-08-28T00:08:26.317Z,100941.06
2022-08-28T00:10:57.406Z,100942.31
2022-08-28T00:13:27.120Z,100932.66
2022-08-28T00:16:01.832Z,100940.97
2022-08-28T00:18:33.419Z,100940.66
2022-08-28T00:21:03.740Z,100935.50
2022-08-28T00:23:43.007Z,100939.00
2022-08-28T00:26:33.369Z,100936.66
2022-08-28T00:29:02.859Z,100925.63
2022-08-28T00:31:31.963Z,100923.47
2022-08-28T00:34:03.557Z,100918.97
2022-08-28T00:36:32.695Z,100917.25
2022-08-28T00:39:02.205Z,100914.13
2022-08-28T00:41:33.900Z,100912.88
2022-08-28T00:44:18.101Z,100909.41
2022-08-28T00:46:49.402Z,100913.06
2022-08-28T00:49:26.415Z,100912.94
2022-08-28T00:52:11.901Z,100917.63
2022-08-28T00:54:58.585Z,100914.47
2022-08-28T00:57:42.275Z,100921.53
2022-08-28T01:00:14.950Z,100902.34
2022-08-28T01:02:44.929Z,100908.72
2022-08-28T01:05:17.291Z,100922.09
2022-08-28T01:07:47.906Z,100910.41
2022-08-28T01:10:21.418Z,100908.94
2022-08-28T01:12:57.131Z,100916.94
2022-08-28T01:15:30.899Z,100906.81
2022-08-28T01:18:08.311Z,100910.25
2022-08-28T01:20:43.576Z,100917.03
2022-08-28T01:23:27.894Z,100917.28
2022-08-28T01:25:58.713Z,100914.69
2022-08-28T01:28:30.450Z,100919.75
2022-08-28T01:31:00.580Z,100919.88
2022-08-28T01:33:29.721Z,100912.06
2022-08-28T01:36:00.186Z,100921.69
2022-08-28T01:38:29.992Z,100920.41
2022-08-28T01:41:00.036Z,100922.00
2022-08-28T01:43:29.298Z,100924.09
2022-08-28T01:46:05.299Z,100925.78
2022-08-28T01:48:38.981Z,100915.25
2022-08-28T01:51:08.519Z,100920.94
2022-08-28T01:53:37.889Z,100926.34
2022-08-28T01:56:11.014Z,100931.97
2022-08-28T01:58:41.473Z,100920.59
2022-08-28T02:01:15.961Z,100923.66
2022-08-28T02:03:45.677Z,100918.91
2022-08-28T02:06:16.941Z,100911.91
2022-08-28T02:08:47.675Z,100920.22
2022-08-28T02:11:20.293Z,100920.81
2022-08-28T02:13:50.818Z,100921.34
2022-08-28T02:16:20.851Z,100920.69
2022-08-28T02:18:50.074Z,100922.38
2022-08-28T02:21:19.286Z,100919.31
2022-08-28T02:23:48.414Z,100911.22
2022-08-28T02:26:17.540Z,100914.81
2022-08-28T02:28:46.711Z,100907.25
2022-08-28T02:31:16.479Z,100909.94
2022-08-28T02:33:47.020Z,100904.06
2022-08-28T02:36:17.708Z,100911.28
2022-08-28T02:38:48.373Z,100912.31
2022-08-28T02:41:18.328Z,100916.34
2022-08-28T02:43:47.848Z,100920.59
2022-08-28T02:46:17.435Z,100911.91
2022-08-28T02:48:49.041Z,100914.66
2022-08-28T02:51:18.240Z,100913.47
2022-08-28T02:53:47.587Z,100918.59
2022-08-28T02:56:17.506Z,100917.69
2022-08-28T02:58:46.627Z,100916.22
2022-08-28T03:01:16.064Z,100921.25
2022-08-28T03:03:45.498Z,100917.59
2022-08-28T03:06:14.765Z,100920.06
2022-08-28T03:08:46.624Z,100913.91
2022-08-28T03:11:15.721Z,100921.22
2022-08-28T03:13:44.857Z,100919.91
2022-08-28T03:16:14.676Z,100928.84
2022-08-28T03:18:43.836Z,100929.88
2022-08-28T03:21:13.140Z,100923.72
2022-08-28T03:23:42.204Z,100930.47
2022-08-28T03:26:14.924Z,100926.97
2022-08-28T03:28:47.754Z,100931.91
2022-08-28T03:31:24.826Z,100932.75
2022-08-28T03:33:55.377Z,100938.47
2022-08-28T03:36:27.499Z,100937.91
2022-08-28T03:39:00.347Z,100947.38
2022-08-28T03:41:31.598Z,100951.41
2022-08-28T03:44:02.415Z,100949.44
2022-08-28T03:46:35.983Z,100947.66
2022-08-28T03:49:06.371Z,100948.53
2022-08-28T03:51:36.367Z,100953.84
2022-08-28T03:54:06.249Z,100952.81
2022-08-28T03:56:35.423Z,100951.78
2022-08-28T03:59:06.275Z,100956.69
2022-08-28T04:01:38.814Z,100960.81
2022-08-28T04:04:08.444Z,100955.09
2022-08-28T04:06:37.500Z,100964.41
2022-08-28T04:09:07.997Z,100956.19
2022-08-28T04:11:44.882Z,100963.81
2022-08-28T04:14:13.946Z,100962.09
2022-08-28T04:16:43.225Z,100967.41
2022-08-28T04:19:12.465Z,100965.28
2022-08-28T04:21:41.508Z,100974.63
2022-08-28T04:24:10.693Z,100973.91
2022-08-28T04:26:39.881Z,100974.81
2022-08-28T04:29:09.312Z,100982.44
2022-08-28T04:31:38.602Z,100978.72
2022-08-28T04:34:11.810Z,100984.25
2022-08-28T04:36:41.446Z,100990.63
2022-08-28T04:39:11.965Z,100983.19
2022-08-28T04:41:41.153Z,100985.25
2022-08-28T04:44:10.544Z,100985.13
2022-08-28T04:46:40.104Z,100976.72
2022-08-28T04:49:09.275Z,100989.34
2022-08-28T04:51:41.983Z,100997.53
2022-08-28T04:54:14.226Z,100994.19
2022-08-28T04:56:44.326Z,100999.44
2022-08-28T04:59:13.995Z,100994.19
2022-08-28T05:01:43.753Z,101008.19
2022-08-28T05:04:13.716Z,101008.25
2022-08-28T05:06:47.102Z,101007.09
2022-08-28T05:09:19.400Z,101010.41
2022-08-28T05:11:50.046Z,101007.16
2022-08-28T05:14:20.964Z,101017.72
2022-08-28T05:16:53.852Z,101013.78
2022-08-28T05:19:26.824Z,101007.03
2022-08-28T05:21:56.496Z,101004.22
2022-08-28T05:24:25.537Z,100997.47
2022-08-28T05:26:54.580Z,100997.94
2022-08-28T05:29:24.260Z,100997.59
2022-08-28T05:31:54.535Z,101001.25
2022-08-28T05:34:23.622Z,101000.50
2022-08-28T05:36:52.694Z,100995.03
2022-08-28T05:39:21.816Z,100991.00
2022-08-28T05:41:51.034Z,100995.84
2022-08-28T05:44:21.876Z,100997.44
2022-08-28T05:46:51.878Z,100998.28
2022-08-28T05:49:21.330Z,100992.78
2022-08-28T05:51:51.279Z,100997.19
2022-08-28T05:54:20.435Z,101001.69
2022-08-28T05:56:49.881Z,101004.56
2022-08-28T05:59:19.184Z,100995.38
2022-08-28T06:01:50.546Z,100997.38
2022-08-28T06:04:24.258Z,100995.53
2022-08-28T06:06:53.770Z,101002.63
2022-08-28T06:09:29.807Z,100997.84
2022-08-28T06:12:02.085Z,101004.31
2022-08-28T06:14:32.593Z,101009.03
2022-08-28T06:17:02.983Z,100992.38
2022-08-28T06:19:35.462Z,101006.91
2022-08-28T06:22:07.680Z,101010.78
2022-08-28T06:24:37.687Z,101007.94
2022-08-28T06:27:07.065Z,101000.41
2022-08-28T06:29:36.547Z,101001.97
2022-08-28T06:32:05.652Z,100995.19
2022-08-28T06:34:35.954Z,100986.94
2022-08-28T06:37:05.383Z,100994.91
2022-08-28T06:39:34.453Z,100989.28
2022-08-28T06:42:04.115Z,100990.94
2022-08-28T06:44:33.986Z,100996.13
2022-08-28T06:47:04.272Z,100988.16
2022-08-28T06:49:33.308Z,100983.78
2022-08-28T06:52:03.140Z,100983.78
2022-08-28T06:54:32.320Z,100976.53
2022-08-28T06:57:01.350Z,100975.09
2022-08-28T06:59:30.417Z,100976.31
2022-08-28T07:01:59.776Z,100975.09
2022-08-28T07:04:29.113Z,100991.91
2022-08-28T07:06:58.147Z,100989.19
2022-08-28T07:09:27.288Z,100985.66
2022-08-28T07:11:56.311Z,100990.41
2022-08-28T07:14:25.966Z,100989.19
2022-08-28T07:16:57.874Z,100986.72
2022-08-28T07:19:27.487Z,100978.00
2022-08-28T07:21:56.779Z,100989.16
2022-08-28T07:24:26.193Z,100997.88
2022-08-28T07:26:55.300Z,100989.75
2022-08-28T07:29:24.478Z,100989.09
2022-08-28T07:31:57.351Z,100988.75
2022-08-28T07:34:27.178Z,101001.94
2022-08-28T07:36:57.193Z,100996.28
2022-08-28T07:39:26.251Z,100996.38
2022-08-28T07:41:55.226Z,100999.63
2022-08-28T07:44:42.576Z,100996.91
2022-08-28T07:47:12.741Z,100998.06
2022-08-28T07:49:42.514Z,100993.41
2022-08-28T07:52:12.812Z,100991.69
2022-08-28T07:54:42.133Z,100998.50
2022-08-28T07:57:11.213Z,101002.22
2022-08-28T07:59:42.271Z,100998.78
2022-08-28T08:02:11.832Z,101000.38
2022-08-28T08:04:41.491Z,100999.72
2022-08-28T08:07:11.080Z,100999.91
2022-08-28T08:09:43.974Z,101004.25
2022-08-28T08:12:14.449Z,101011.56
2022-08-28T08:14:44.795Z,101006.03
2022-08-28T08:17:14.013Z,101014.00
2022-08-28T08:19:43.090Z,101012.56
2022-08-28T08:22:12.324Z,101008.59
2022-08-28T08:24:42.066Z,101008.41
2022-08-28T08:27:11.506Z,101010.47
2022-08-28T08:29:40.682Z,101010.97
2022-08-28T08:32:11.938Z,101006.25
2022-08-28T08:34:46.582Z,101005.38
2022-08-28T08:37:16.136Z,101008.56
2022-08-28T08:39:45.264Z,101010.91
2022-08-28T08:42:32.547Z,101014.06
2022-08-28T08:45:06.881Z,101015.66
2022-08-28T08:47:49.551Z,101011.69
2022-08-28T08:50:27.028Z,101009.25
2022-08-28T08:53:20.532Z,101012.41
2022-08-28T08:55:55.061Z,101010.06
2022-08-28T08:58:38.102Z,101007.81
2022-08-28T09:01:19.022Z,101003.41
2022-08-28T09:03:50.807Z,101011.09
2022-08-28T09:06:37.620Z,101008.59
2022-08-28T09:09:16.529Z,101007.16
2022-08-28T09:11:56.374Z,101003.25
2022-08-28T09:15:05.985Z,101005.53
2022-08-28T09:17:56.831Z,101000.94
2022-08-28T09:20:33.101Z,101005.63
2022-08-28T09:23:12.741Z,100999.34
2022-08-28T09:25:59.805Z,101001.03
2022-08-28T09:28:38.109Z,101001.09
2022-08-28T09:31:09.508Z,101007.56
2022-08-28T09:33:43.991Z,101007.19
2022-08-28T09:36:36.748Z,101008.34
2022-08-28T09:39:13.681Z,101013.91
2022-08-28T09:42:21.662Z,101009.97
2022-08-28T09:44:59.898Z,101005.31
2022-08-28T09:47:46.123Z,101006.63
2022-08-28T09:50:22.655Z,100995.69
2022-08-28T09:52:57.099Z,101002.16
2022-08-28T09:55:38.265Z,101003.06
2022-08-28T09:58:08.014Z,101000.66
2022-08-28T10:00:42.775Z,101014.06
2022-08-28T10:03:35.268Z,101020.41
2022-08-28T10:06:16.424Z,101017.41
2022-08-28T10:09:05.191Z,101012.50
2022-08-28T10:11:58.056Z,101011.00
2022-08-28T10:14:27.174Z,101002.59
2022-08-28T10:17:10.931Z,101013.25
2022-08-28T10:20:21.376Z,101020.50
2022-08-28T10:23:28.323Z,101017.28
2022-08-28T10:26:16.096Z,101020.53
2022-08-28T10:29:20.808Z,101027.59
2022-08-28T10:32:13.226Z,101023.00
2022-08-28T10:34:45.268Z,101021.72
2022-08-28T10:37:31.574Z,101029.34
2022-08-28T10:40:06.384Z,101028.06
2022-08-28T10:42:48.194Z,101023.66
2022-08-28T10:45:23.952Z,101032.38
2022-08-28T10:48:10.266Z,101036.50
2022-08-28T10:50:46.325Z,101037.31
2022-08-28T10:53:21.722Z,101035.34
2022-08-28T10:55:58.653Z,101042.94
2022-08-28T10:58:28.765Z,101032.53
2022-08-28T11:01:06.313Z,101040.56
2022-08-28T11:03:44.247Z,101038.16
2022-08-28T11:06:42.884Z,101034.22
2022-08-28T11:09:27.597Z,101035.84
2022-08-28T11:12:11.015Z,101028.66
2022-08-28T11:14:47.901Z,101035.09
2022-08-28T11:17:26.141Z,101026.72
2022-08-28T11:20:12.195Z,101026.34
2022-08-28T11:22:50.609Z,101030.31
2022-08-28T11:25:35.502Z,101019.97
2022-08-28T11:28:25.453Z,101018.38
2022-08-28T11:31:06.619Z,101016.84
2022-08-28T11:33:44.674Z,101022.38
2022-08-28T11:36:22.840Z,101017.59
2022-08-28T11:38:58.599Z,101016.81
2022-08-28T11:41:37.262Z,101022.00
2022-08-28T11:44:15.666Z,101023.25
2022-08-28T11:46:50.418Z,101021.66
2022-08-28T11:49:28.420Z,101024.03
2022-08-28T11:52:13.798Z,101016.06
2022-08-28T11:55:01.526Z,101018.44
2022-08-28T11:57:41.826Z,101017.69
2022-08-28T12:00:22.849Z,101007.34
2022-08-28T12:03:16.294Z,101020.09
2022-08-28T12:05:49.311Z,101016.13
2022-08-28T12:08:46.889Z,101015.38
2022-08-28T12:11:40.441Z,101014.19
2022-08-28T12:14:33.847Z,101015.38
2022-08-28T12:17:03.271Z,101025.75
2022-08-28T12:19:55.549Z,101014.63
2022-08-28T12:22:40.555Z,101013.81
2022-08-28T12:25:25.571Z,101018.59
2022-08-28T12:27:56.297Z,101016.59
2022-08-28T12:30:31.517Z,101026.19
2022-08-28T12:33:07.966Z,101021.84
2022-08-28T12:35:37.510Z,101015.06
2022-08-28T12:38:10.176Z,101017.47
2022-08-28T12:40:39.419Z,101014.69
2022-08-28T12:43:15.385Z,101019.47
2022-08-28T12:45:52.973Z,101016.28
2022-08-28T12:48:33.054Z,101006.31
2022-08-28T12:51:06.166Z,101017.91
2022-08-28T12:53:49.678Z,101011.09
2022-08-28T12:56:21.483Z,101016.28
2022-08-28T12:58:51.730Z,101013.91
2022-08-28T13:01:33.434Z,101021.06
2022-08-28T13:04:06.359Z,101010.72
2022-08-28T13:06:39.420Z,101027.44
2022-08-28T13:09:17.904Z,101029.03
2022-08-28T13:11:50.054Z,101028.22
2022-08-28T13:14:41.707Z,101033.00
2022-08-28T13:17:12.703Z,101033.03
2022-08-28T13:19:44.980Z,101040.16
2022-08-28T13:22:37.343Z,101040.19
2022-08-28T13:25:07.727Z,101045.72
2022-08-28T13:27:39.886Z,101047.31
2022-08-28T13:30:29.993Z,101056.88
2022-08-28T13:33:07.613Z,101071.22
2022-08-28T13:35:42.081Z,101072.41
2022-08-28T13:38:14.358Z,101070.41
2022-08-28T13:40:57.907Z,101055.28
2022-08-28T13:43:31.361Z,101063.66
2022-08-28T13:46:00.450Z,101071.22
2022-08-28T13:48:29.528Z,101067.59
2022-08-28T13:51:04.929Z,101072.81
2022-08-28T13:53:34.580Z,101082.38
2022-08-28T13:56:05.973Z,101073.56
2022-08-28T13:58:35.078Z,101069.19
2022-08-28T14:01:05.559Z,101071.97
2022-08-28T14:03:42.201Z,101075.94
2022-08-28T14:06:15.499Z,101080.72
2022-08-28T14:08:46.597Z,101084.72
2022-08-28T14:11:16.633Z,101077.94
2022-08-28T14:13:47.444Z,101081.50
2022-08-28T14:16:28.057Z,101083.09
2022-08-28T14:18:57.251Z,101078.34
2022-08-28T14:21:26.233Z,101082.31
2022-08-28T14:23:55.321Z,101086.59
2022-08-28T14:26:24.390Z,101088.13
2022-08-28T14:28:53.469Z,101097.75
2022-08-28T14:31:26.383Z,101100.91
2022-08-28T14:33:57.724Z,101102.88
2022-08-28T14:36:31.710Z,101102.97
2022-08-28T14:39:06.060Z,101108.47
2022-08-28T14:41:36.102Z,101106.41
2022-08-28T14:44:06.243Z,101108.06
2022-08-28T14:46:38.536Z,101106.91
2022-08-28T14:49:11.162Z,101111.13
2022-08-28T14:51:42.338Z,101112.72
2022-08-28T14:54:13.958Z,101127.53
2022-08-28T14:56:45.280Z,101129.22
2022-08-28T14:59:24.213Z,101130.81
2022-08-28T15:01:56.686Z,101129.16
2022-08-28T15:04:27.530Z,101133.16
2022-08-28T15:06:59.910Z,101132.69
2022-08-28T15:09:30.076Z,101136.38
2022-08-28T15:11:59.142Z,101141.03
2022-08-28T15:14:28.804Z,101134.25
2022-08-28T15:16:58.205Z,101139.47
2022-08-28T15:19:27.440Z,101137.03
2022-08-28T15:21:58.291Z,101138.22
2022-08-28T15:24:33.922Z,101143.44
2022-08-28T15:27:03.914Z,101152.91
2022-08-28T15:29:32.989Z,101152.81
2022-08-28T15:32:02.376Z,101148.06
2022-08-28T15:34:31.624Z,101146.47
2022-08-28T15:37:01.385Z,101152.91
2022-08-28T15:39:50.659Z,101149.31
2022-08-28T15:42:19.756Z,101155.25
2022-08-28T15:44:48.880Z,101158.34
2022-08-28T15:47:18.266Z,101163.22
2022-08-28T15:49:49.912Z,101164.34
2022-08-28T15:52:20.500Z,101158.34
2022-08-28T15:54:50.686Z,101160.03
2022-08-28T15:57:20.695Z,101161.69
2022-08-28T15:59:50.916Z,101155.34
2022-08-28T16:02:24.069Z,101154.50
2022-08-28T16:04:54.749Z,101151.59
2022-08-28T16:07:25.689Z,101151.13
2022-08-28T16:09:54.823Z,101158.69
2022-08-28T16:12:23.907Z,101156.72
2022-08-28T16:14:53.159Z,101159.56
2022-08-28T16:17:22.268Z,101153.50
2022-08-28T16:19:54.362Z,101154.44
2022-08-28T16:22:24.256Z,101152.13
2022-08-28T16:24:53.548Z,101153.97
2022-08-28T16:27:22.668Z,101156.59
2022-08-28T16:29:52.991Z,101166.09
2022-08-28T16:32:22.510Z,101166.09
2022-08-28T16:34:52.302Z,101162.22
2022-08-28T16:37:23.241Z,101170.09
2022-08-28T16:39:55.973Z,101169.31
2022-08-28T16:42:32.767Z,101167.78
2022-08-28T16:45:02.882Z,101163.63
2022-08-28T16:47:33.994Z,101162.03
2022-08-28T16:50:07.510Z,101170.16
2022-08-28T16:52:37.012Z,101163.47
2022-08-28T16:55:07.957Z,101159.75
2022-08-28T16:57:41.023Z,101171.91
2022-08-28T17:00:13.772Z,101169.44
2022-08-28T17:02:43.673Z,101162.75
2022-08-28T17:05:15.424Z,101167.38
2022-08-28T17:07:48.074Z,101163.16
2022-08-28T17:10:19.691Z,101146.56
2022-08-28T17:12:49.084Z,101150.56
2022-08-28T17:15:18.874Z,101147.19
2022-08-28T17:17:48.154Z,101147.78
2022-08-28T17:20:35.731Z,101138.72
2022-08-28T17:23:06.783Z,101148.56
2022-08-28T17:25:36.373Z,101147.50
2022-08-28T17:28:05.907Z,101146.63
2022-08-28T17:30:35.244Z,101149.53
2022-08-28T17:33:06.219Z,101144.03
2022-08-28T17:35:41.945Z,101144.88
2022-08-28T17:38:11.620Z,101138.63
2022-08-28T17:40:40.997Z,101133.81
2022-08-28T17:43:10.517Z,101134.13
2022-08-28T17:45:39.553Z,101138.25
2022-08-28T17:48:08.708Z,101136.53
2022-08-28T17:50:37.766Z,101134.53
2022-08-28T17:53:06.850Z,101132.31
2022-08-28T17:55:36.712Z,101136.00
2022-08-28T17:58:06.336Z,101134.31
2022-08-28T18:00:35.772Z,101131.88
2022-08-28T18:03:04.980Z,101131.16
2022-08-28T18:05:34.626Z,101120.22
2022-08-28T18:08:03.639Z,101123.38
2022-08-28T18:10:34.617Z,101113.44
2022-08-28T18:13:05.671Z,101108.25
2022-08-28T18:15:36.752Z,101103.00
2022-08-28T18:18:07.695Z,101116.91
2022-08-28T18:20:38.141Z,101115.75
2022-08-28T18:23:07.750Z,101117.31
2022-08-28T18:25:44.889Z,101114.22
2022-08-28T18:28:23.403Z,101112.09
2022-08-28T18:30:53.583Z,101110.19
2022-08-28T18:33:25.632Z,101110.66
2022-08-28T18:35:55.182Z,101112.00
2022-08-28T18:38:28.697Z,101110.91
2022-08-28T18:40:58.117Z,101110.66
2022-08-28T18:43:27.400Z,101104.47
2022-08-28T18:45:56.624Z,101108.00
2022-08-28T18:48:25.917Z,101105.09
2022-08-28T18:50:55.677Z,101101.38
2022-08-28T18:53:25.378Z,101094.59
2022-08-28T18:55:55.978Z,101098.00
2022-08-28T18:58:28.394Z,101094.53
2022-08-28T19:00:57.607Z,101089.56
2022-08-28T19:03:27.150Z,101088.03
2022-08-28T19:05:57.138Z,101083.22
2022-08-28T19:08:27.181Z,101081.03
2022-08-28T19:10:56.264Z,101078.19
2022-08-28T19:13:25.332Z,101070.63
2022-08-28T19:15:54.570Z,101067.13
2022-08-28T19:18:24.508Z,101068.69
2022-08-28T19:20:53.723Z,101070.72
2022-08-28T19:23:22.859Z,101067.31
2022-08-28T19:25:51.943Z,101059.78
2022-08-28T19:28:21.458Z,101052.22
2022-08-28T19:30:50.528Z,101051.53
2022-08-28T19:33:19.855Z,101055.91
2022-08-28T19:35:49.772Z,101041.47
2022-08-28T19:38:18.929Z,101045.28
2022-08-28T19:40:48.418Z,101039.66
2022-08-28T19:43:17.566Z,101036.78
2022-08-28T19:45:47.171Z,101034.28
2022-08-28T19:48:16.931Z,101041.41
2022-08-28T19:50:46.379Z,101037.44
2022-08-28T19:53:16.336Z,101032.38
2022-08-28T19:55:45.860Z,101029.66
2022-08-28T19:58:15.156Z,101029.84
2022-08-28T20:00:44.774Z,101024.66
2022-08-28T20:03:17.537Z,101018.97
2022-08-28T20:05:49.518Z,101015.09
2022-08-28T20:08:20.655Z,101019.59
2022-08-28T20:10:50.377Z,101011.75
2022-08-28T20:13:19.569Z,101004.97
2022-08-28T20:15:54.605Z,101004.25
2022-08-28T20:18:24.472Z,101000.47
2022-08-28T20:20:53.585Z,101000.25
2022-08-28T20:23:22.655Z,100987.59
2022-08-28T20:25:52.895Z,100993.13
2022-08-28T20:28:22.074Z,100984.88
2022-08-28T20:30:51.492Z,100987.34
2022-08-28T20:33:23.442Z,100983.28
2022-08-28T20:36:02.170Z,100976.38
2022-08-28T20:38:32.679Z,100971.53
2022-08-28T20:41:11.058Z,100966.41
2022-08-28T20:43:41.819Z,100964.72
2022-08-28T20:46:14.395Z,100966.66
2022-08-28T20:48:43.930Z,100962.25
2022-08-28T20:51:13.452Z,100962.84
2022-08-28T20:53:42.531Z,100957.41
2022-08-28T20:56:12.401Z,100955.69
2022-08-28T20:58:41.518Z,100949.38
2022-08-28T21:01:13.726Z,100951.91
2022-08-28T21:03:43.381Z,100947.56
2022-08-28T21:06:12.698Z,100947.00
2022-08-28T21:08:41.835Z,100938.38
2022-08-28T21:11:10.908Z,100929.69
2022-08-28T21:13:41.440Z,100928.28
2022-08-28T21:16:10.558Z,100922.91
2022-08-28T21:18:49.255Z,100923.81
2022-08-28T21:21:30.727Z,100911.31
2022-08-28T21:23:59.827Z,100917.44
2022-08-28T21:26:28.911Z,100916.88
2022-08-28T21:28:58.457Z,100914.03
2022-08-28T21:31:27.675Z,100918.56
2022-08-28T21:33:56.869Z,100912.28
2022-08-28T21:36:25.942Z,100906.13
2022-08-28T21:38:55.016Z,100896.59
2022-08-28T21:41:24.027Z,100905.44
2022-08-28T21:43:53.218Z,100900.47
2022-08-28T21:46:22.262Z,100903.78
2022-08-28T21:48:54.221Z,100899.44
2022-08-28T21:51:25.570Z,100896.06
2022-08-28T21:53:56.872Z,100892.91
2022-08-28T21:56:28.632Z,100896.75
2022-08-28T21:58:58.447Z,100901.25
2022-08-28T22:01:28.484Z,100891.91
2022-08-28T22:04:00.766Z,100887.97
2022-08-28T22:06:30.269Z,100876.34
2022-08-28T22:08:59.765Z,100877.91
2022-08-28T22:11:29.046Z,100882.03
2022-08-28T22:13:58.625Z,100877.16
2022-08-28T22:16:28.850Z,100887.28
2022-08-28T22:18:58.474Z,100878.09
2022-08-28T22:21:46.949Z,100874.41
2022-08-28T22:24:16.480Z,100864.19
2022-08-28T22:26:45.782Z,100861.81
2022-08-28T22:29:14.964Z,100860.25
2022-08-28T22:31:46.136Z,100857.69
2022-08-28T22:34:16.118Z,100848.28
2022-08-28T22:36:45.290Z,100859.56
2022-08-28T22:39:14.392Z,100858.19
2022-08-28T22:44:44.217Z,100853.91
2022-08-28T22:47:13.432Z,100847.38
2022-08-28T22:49:42.449Z,100854.06
2022-08-28T22:52:12.549Z,100854.31
2022-08-28T22:54:41.690Z,100851.88
2022-08-28T22:57:11.379Z,100842.38
2022-08-28T22:59:40.487Z,100851.91
2022-08-28T23:02:10.053Z,100841.28
2022-08-28T23:04:40.205Z,100842.00
2022-08-28T23:07:09.710Z,100836.78
2022-08-28T23:09:42.711Z,100843.81
2022-08-28T23:12:11.814Z,100835.78
2022-08-28T23:14:44.241Z,100849.13
2022-08-28T23:17:15.695Z,100828.97
2022-08-28T23:19:46.669Z,100832.47
2022-08-28T23:22:16.944Z,100831.75
2022-08-28T23:24:47.462Z,100833.56
2022-08-28T23:27:35.798Z,100825.00
2022-08-28T23:30:08.098Z,100833.00
2022-08-28T23:32:37.554Z,100839.19
2022-08-28T23:35:10.476Z,100824.75
2022-08-28T23:37:42.933Z,100826.28
2022-08-28T23:40:20.519Z,100833.78
2022-08-28T23:42:50.059Z,100833.09
2022-08-28T23:45:19.901Z,100828.66
2022-08-28T23:47:49.493Z,100835.22
2022-08-28T23:50:22.402Z,100829.31
2022-08-28T23:52:51.728Z,100822.63
2022-08-28T23:55:21.820Z,100830.16
2022-08-28T23:57:52.259Z,100834.63
